<?xml version="1.0" encoding="UTF-8" standalone="no" ?>
<gpx xmlns="http://www.topografix.com/GPX/1/1" xmlns:xsi="http://www.w3.org/2001/XMLSchema-instance" xsi:schemaLocation="http://www.topografix.com/GPX/1/1 http://www.topografix.com/GPX/1/1/gpx.xsd" version="1.1" creator="VisuGPX - https://www.visugpx.com">
  <metadata>
    <name>boucles beaumont</name>
    <desc><![CDATA[boucles beaumont du périgord]]></desc>
  </metadata>
  <trk>
    <name><![CDATA[BBmt59]]></name>
    <trkseg>
      <trkpt lat="44.72635" lon="0.76568">
        <ele>153</ele>
        <time>2009-01-20T09:54:07Z</time>
      </trkpt>
      <trkpt lat="44.72615" lon="0.76565">
        <ele>149</ele>
        <time>2009-01-20T09:54:28Z</time>
      </trkpt>
      <trkpt lat="44.72595" lon="0.76563">
        <ele>149</ele>
        <time>2009-01-20T09:54:46Z</time>
      </trkpt>
      <trkpt lat="44.72575" lon="0.76558">
        <ele>150</ele>
        <time>2009-01-20T09:55:03Z</time>
      </trkpt>
      <trkpt lat="44.72555" lon="0.76555">
        <ele>150</ele>
        <time>2009-01-20T09:55:20Z</time>
      </trkpt>
      <trkpt lat="44.72288" lon="0.76418">
        <ele>158</ele>
        <time>2009-01-20T10:01:18Z</time>
      </trkpt>
      <trkpt lat="44.72268" lon="0.76405">
        <ele>158</ele>
        <time>2009-01-20T10:01:29Z</time>
      </trkpt>
      <trkpt lat="44.7225" lon="0.76398">
        <ele>158</ele>
        <time>2009-01-20T10:01:34Z</time>
      </trkpt>
      <trkpt lat="44.72233" lon="0.7639">
        <ele>156</ele>
        <time>2009-01-20T10:01:41Z</time>
      </trkpt>
      <trkpt lat="44.72225" lon="0.76418">
        <ele>156</ele>
        <time>2009-01-20T10:01:53Z</time>
      </trkpt>
      <trkpt lat="44.72218" lon="0.7645">
        <ele>153</ele>
        <time>2009-01-20T10:01:57Z</time>
      </trkpt>
      <trkpt lat="44.72215" lon="0.7648">
        <ele>153</ele>
        <time>2009-01-20T10:02:00Z</time>
      </trkpt>
      <trkpt lat="44.7221" lon="0.76513">
        <ele>154</ele>
        <time>2009-01-20T10:02:05Z</time>
      </trkpt>
      <trkpt lat="44.72205" lon="0.76538">
        <ele>156</ele>
        <time>2009-01-20T10:02:08Z</time>
      </trkpt>
      <trkpt lat="44.722" lon="0.76563">
        <ele>157</ele>
        <time>2009-01-20T10:02:11Z</time>
      </trkpt>
      <trkpt lat="44.72193" lon="0.7659">
        <ele>157</ele>
        <time>2009-01-20T10:02:14Z</time>
      </trkpt>
      <trkpt lat="44.72188" lon="0.76618">
        <ele>158</ele>
        <time>2009-01-20T10:02:17Z</time>
      </trkpt>
      <trkpt lat="44.7218" lon="0.76648">
        <ele>159</ele>
        <time>2009-01-20T10:02:21Z</time>
      </trkpt>
      <trkpt lat="44.72175" lon="0.76673">
        <ele>160</ele>
        <time>2009-01-20T10:02:30Z</time>
      </trkpt>
      <trkpt lat="44.72175" lon="0.76705">
        <ele>152</ele>
        <time>2009-01-20T10:03:20Z</time>
      </trkpt>
      <trkpt lat="44.7217" lon="0.7673">
        <ele>153</ele>
        <time>2009-01-20T10:03:23Z</time>
      </trkpt>
      <trkpt lat="44.72165" lon="0.7676">
        <ele>153</ele>
        <time>2009-01-20T10:03:26Z</time>
      </trkpt>
      <trkpt lat="44.72158" lon="0.76793">
        <ele>153</ele>
        <time>2009-01-20T10:03:29Z</time>
      </trkpt>
      <trkpt lat="44.72153" lon="0.76828">
        <ele>152</ele>
        <time>2009-01-20T10:03:31Z</time>
      </trkpt>
      <trkpt lat="44.7215" lon="0.76858">
        <ele>152</ele>
        <time>2009-01-20T10:03:35Z</time>
      </trkpt>
      <trkpt lat="44.72145" lon="0.76885">
        <ele>156</ele>
        <time>2009-01-20T10:03:39Z</time>
      </trkpt>
      <trkpt lat="44.72125" lon="0.76885">
        <ele>164</ele>
        <time>2009-01-20T10:04:29Z</time>
      </trkpt>
      <trkpt lat="44.72105" lon="0.76885">
        <ele>155</ele>
        <time>2009-01-20T10:04:50Z</time>
      </trkpt>
      <trkpt lat="44.72085" lon="0.76888">
        <ele>151</ele>
        <time>2009-01-20T10:05:09Z</time>
      </trkpt>
      <trkpt lat="44.72065" lon="0.76893">
        <ele>152</ele>
        <time>2009-01-20T10:05:26Z</time>
      </trkpt>
      <trkpt lat="44.71563" lon="0.7714">
        <ele>195</ele>
        <time>2009-01-20T10:10:12Z</time>
      </trkpt>
      <trkpt lat="44.71543" lon="0.77145">
        <ele>196</ele>
        <time>2009-01-20T10:10:23Z</time>
      </trkpt>
      <trkpt lat="44.71533" lon="0.77173">
        <ele>196</ele>
        <time>2009-01-20T10:10:41Z</time>
      </trkpt>
      <trkpt lat="44.7153" lon="0.772">
        <ele>197</ele>
        <time>2009-01-20T10:10:45Z</time>
      </trkpt>
      <trkpt lat="44.71528" lon="0.77233">
        <ele>196</ele>
        <time>2009-01-20T10:10:49Z</time>
      </trkpt>
      <trkpt lat="44.7153" lon="0.77265">
        <ele>197</ele>
        <time>2009-01-20T10:10:53Z</time>
      </trkpt>
      <trkpt lat="44.71535" lon="0.77298">
        <ele>195</ele>
        <time>2009-01-20T10:10:57Z</time>
      </trkpt>
      <trkpt lat="44.7154" lon="0.77323">
        <ele>192</ele>
        <time>2009-01-20T10:11:00Z</time>
      </trkpt>
      <trkpt lat="44.71545" lon="0.7735">
        <ele>191</ele>
        <time>2009-01-20T10:11:03Z</time>
      </trkpt>
      <trkpt lat="44.7155" lon="0.7738">
        <ele>190</ele>
        <time>2009-01-20T10:11:06Z</time>
      </trkpt>
      <trkpt lat="44.71553" lon="0.77408">
        <ele>189</ele>
        <time>2009-01-20T10:11:09Z</time>
      </trkpt>
      <trkpt lat="44.71553" lon="0.77443">
        <ele>189</ele>
        <time>2009-01-20T10:11:13Z</time>
      </trkpt>
      <trkpt lat="44.71553" lon="0.77473">
        <ele>190</ele>
        <time>2009-01-20T10:11:16Z</time>
      </trkpt>
      <trkpt lat="44.71553" lon="0.77505">
        <ele>193</ele>
        <time>2009-01-20T10:11:19Z</time>
      </trkpt>
      <trkpt lat="44.7155" lon="0.7754">
        <ele>194</ele>
        <time>2009-01-20T10:11:22Z</time>
      </trkpt>
      <trkpt lat="44.71548" lon="0.77578">
        <ele>195</ele>
        <time>2009-01-20T10:11:25Z</time>
      </trkpt>
      <trkpt lat="44.71548" lon="0.77605">
        <ele>197</ele>
        <time>2009-01-20T10:11:27Z</time>
      </trkpt>
      <trkpt lat="44.71548" lon="0.77633">
        <ele>198</ele>
        <time>2009-01-20T10:11:29Z</time>
      </trkpt>
      <trkpt lat="44.71545" lon="0.7767">
        <ele>199</ele>
        <time>2009-01-20T10:11:32Z</time>
      </trkpt>
      <trkpt lat="44.71548" lon="0.77703">
        <ele>201</ele>
        <time>2009-01-20T10:11:35Z</time>
      </trkpt>
      <trkpt lat="44.71548" lon="0.7773">
        <ele>202</ele>
        <time>2009-01-20T10:11:46Z</time>
      </trkpt>
      <trkpt lat="44.71528" lon="0.7772">
        <ele>203</ele>
        <time>2009-01-20T10:11:51Z</time>
      </trkpt>
      <trkpt lat="44.7151" lon="0.77705">
        <ele>203</ele>
        <time>2009-01-20T10:11:54Z</time>
      </trkpt>
      <trkpt lat="44.71493" lon="0.77693">
        <ele>203</ele>
        <time>2009-01-20T10:11:56Z</time>
      </trkpt>
      <trkpt lat="44.71475" lon="0.7768">
        <ele>203</ele>
        <time>2009-01-20T10:11:58Z</time>
      </trkpt>
      <trkpt lat="44.71455" lon="0.77665">
        <ele>204</ele>
        <time>2009-01-20T10:12:00Z</time>
      </trkpt>
      <trkpt lat="44.71438" lon="0.7765">
        <ele>205</ele>
        <time>2009-01-20T10:12:02Z</time>
      </trkpt>
      <trkpt lat="44.71413" lon="0.77623">
        <ele>205</ele>
        <time>2009-01-20T10:12:05Z</time>
      </trkpt>
      <trkpt lat="44.71398" lon="0.77603">
        <ele>205</ele>
        <time>2009-01-20T10:12:07Z</time>
      </trkpt>
      <trkpt lat="44.71375" lon="0.77575">
        <ele>206</ele>
        <time>2009-01-20T10:12:10Z</time>
      </trkpt>
      <trkpt lat="44.7136" lon="0.77555">
        <ele>207</ele>
        <time>2009-01-20T10:12:12Z</time>
      </trkpt>
      <trkpt lat="44.71345" lon="0.77535">
        <ele>208</ele>
        <time>2009-01-20T10:12:14Z</time>
      </trkpt>
      <trkpt lat="44.7132" lon="0.7751">
        <ele>209</ele>
        <time>2009-01-20T10:12:17Z</time>
      </trkpt>
      <trkpt lat="44.71303" lon="0.775">
        <ele>210</ele>
        <time>2009-01-20T10:12:19Z</time>
      </trkpt>
      <trkpt lat="44.7128" lon="0.77493">
        <ele>211</ele>
        <time>2009-01-20T10:12:21Z</time>
      </trkpt>
      <trkpt lat="44.7125" lon="0.77483">
        <ele>211</ele>
        <time>2009-01-20T10:12:24Z</time>
      </trkpt>
      <trkpt lat="44.71225" lon="0.77473">
        <ele>211</ele>
        <time>2009-01-20T10:12:27Z</time>
      </trkpt>
      <trkpt lat="44.712" lon="0.77458">
        <ele>211</ele>
        <time>2009-01-20T10:12:30Z</time>
      </trkpt>
      <trkpt lat="44.7118" lon="0.77443">
        <ele>211</ele>
        <time>2009-01-20T10:12:33Z</time>
      </trkpt>
      <trkpt lat="44.71163" lon="0.77433">
        <ele>210</ele>
        <time>2009-01-20T10:12:39Z</time>
      </trkpt>
      <trkpt lat="44.7114" lon="0.7744">
        <ele>209</ele>
        <time>2009-01-20T10:12:45Z</time>
      </trkpt>
      <trkpt lat="44.71125" lon="0.77455">
        <ele>209</ele>
        <time>2009-01-20T10:12:48Z</time>
      </trkpt>
      <trkpt lat="44.71108" lon="0.77475">
        <ele>208</ele>
        <time>2009-01-20T10:12:51Z</time>
      </trkpt>
      <trkpt lat="44.71088" lon="0.77495">
        <ele>207</ele>
        <time>2009-01-20T10:12:54Z</time>
      </trkpt>
      <trkpt lat="44.71073" lon="0.77515">
        <ele>206</ele>
        <time>2009-01-20T10:12:57Z</time>
      </trkpt>
      <trkpt lat="44.71058" lon="0.77535">
        <ele>206</ele>
        <time>2009-01-20T10:13:00Z</time>
      </trkpt>
      <trkpt lat="44.71045" lon="0.77555">
        <ele>205</ele>
        <time>2009-01-20T10:13:03Z</time>
      </trkpt>
      <trkpt lat="44.7103" lon="0.77573">
        <ele>205</ele>
        <time>2009-01-20T10:13:06Z</time>
      </trkpt>
      <trkpt lat="44.71013" lon="0.7759">
        <ele>205</ele>
        <time>2009-01-20T10:13:09Z</time>
      </trkpt>
      <trkpt lat="44.70995" lon="0.77603">
        <ele>205</ele>
        <time>2009-01-20T10:13:12Z</time>
      </trkpt>
      <trkpt lat="44.70978" lon="0.77615">
        <ele>204</ele>
        <time>2009-01-20T10:13:15Z</time>
      </trkpt>
      <trkpt lat="44.70963" lon="0.77633">
        <ele>204</ele>
        <time>2009-01-20T10:13:18Z</time>
      </trkpt>
      <trkpt lat="44.70948" lon="0.77653">
        <ele>204</ele>
        <time>2009-01-20T10:13:23Z</time>
      </trkpt>
      <trkpt lat="44.71313" lon="0.7886">
        <ele>210</ele>
        <time>2009-01-20T10:25:07Z</time>
      </trkpt>
      <trkpt lat="44.71328" lon="0.78875">
        <ele>211</ele>
        <time>2009-01-20T10:25:21Z</time>
      </trkpt>
      <trkpt lat="44.71343" lon="0.7889">
        <ele>206</ele>
        <time>2009-01-20T10:25:55Z</time>
      </trkpt>
      <trkpt lat="44.71358" lon="0.78905">
        <ele>205</ele>
        <time>2009-01-20T10:26:00Z</time>
      </trkpt>
      <trkpt lat="44.71373" lon="0.78923">
        <ele>205</ele>
        <time>2009-01-20T10:26:04Z</time>
      </trkpt>
      <trkpt lat="44.71388" lon="0.78945">
        <ele>204</ele>
        <time>2009-01-20T10:26:08Z</time>
      </trkpt>
      <trkpt lat="44.714" lon="0.78968">
        <ele>205</ele>
        <time>2009-01-20T10:26:11Z</time>
      </trkpt>
      <trkpt lat="44.71415" lon="0.78998">
        <ele>205</ele>
        <time>2009-01-20T10:26:14Z</time>
      </trkpt>
      <trkpt lat="44.71428" lon="0.79028">
        <ele>206</ele>
        <time>2009-01-20T10:26:17Z</time>
      </trkpt>
      <trkpt lat="44.71433" lon="0.79053">
        <ele>205</ele>
        <time>2009-01-20T10:26:19Z</time>
      </trkpt>
      <trkpt lat="44.71438" lon="0.79078">
        <ele>204</ele>
        <time>2009-01-20T10:26:21Z</time>
      </trkpt>
      <trkpt lat="44.71445" lon="0.79115">
        <ele>205</ele>
        <time>2009-01-20T10:26:24Z</time>
      </trkpt>
      <trkpt lat="44.71448" lon="0.7915">
        <ele>204</ele>
        <time>2009-01-20T10:26:27Z</time>
      </trkpt>
      <trkpt lat="44.7145" lon="0.79178">
        <ele>205</ele>
        <time>2009-01-20T10:26:30Z</time>
      </trkpt>
      <trkpt lat="44.7145" lon="0.79205">
        <ele>206</ele>
        <time>2009-01-20T10:26:36Z</time>
      </trkpt>
      <trkpt lat="44.71453" lon="0.79238">
        <ele>206</ele>
        <time>2009-01-20T10:26:41Z</time>
      </trkpt>
      <trkpt lat="44.71455" lon="0.7927">
        <ele>206</ele>
        <time>2009-01-20T10:26:44Z</time>
      </trkpt>
      <trkpt lat="44.71455" lon="0.79303">
        <ele>205</ele>
        <time>2009-01-20T10:26:49Z</time>
      </trkpt>
      <trkpt lat="44.71455" lon="0.7933">
        <ele>205</ele>
        <time>2009-01-20T10:26:54Z</time>
      </trkpt>
      <trkpt lat="44.71455" lon="0.79363">
        <ele>210</ele>
        <time>2009-01-20T10:28:30Z</time>
      </trkpt>
      <trkpt lat="44.71455" lon="0.7939">
        <ele>211</ele>
        <time>2009-01-20T10:28:33Z</time>
      </trkpt>
      <trkpt lat="44.71458" lon="0.79423">
        <ele>212</ele>
        <time>2009-01-20T10:28:36Z</time>
      </trkpt>
      <trkpt lat="44.7146" lon="0.7945">
        <ele>214</ele>
        <time>2009-01-20T10:28:39Z</time>
      </trkpt>
      <trkpt lat="44.7146" lon="0.79478">
        <ele>216</ele>
        <time>2009-01-20T10:28:44Z</time>
      </trkpt>
      <trkpt lat="44.7146" lon="0.79513">
        <ele>218</ele>
        <time>2009-01-20T10:28:49Z</time>
      </trkpt>
      <trkpt lat="44.71453" lon="0.79538">
        <ele>220</ele>
        <time>2009-01-20T10:28:53Z</time>
      </trkpt>
      <trkpt lat="44.7144" lon="0.79558">
        <ele>220</ele>
        <time>2009-01-20T10:29:05Z</time>
      </trkpt>
      <trkpt lat="44.71435" lon="0.79585">
        <ele>219</ele>
        <time>2009-01-20T10:29:10Z</time>
      </trkpt>
      <trkpt lat="44.71445" lon="0.79613">
        <ele>216</ele>
        <time>2009-01-20T10:29:16Z</time>
      </trkpt>
      <trkpt lat="44.7146" lon="0.7963">
        <ele>218</ele>
        <time>2009-01-20T10:29:22Z</time>
      </trkpt>
      <trkpt lat="44.71473" lon="0.7965">
        <ele>216</ele>
        <time>2009-01-20T10:29:28Z</time>
      </trkpt>
      <trkpt lat="44.71488" lon="0.7967">
        <ele>216</ele>
        <time>2009-01-20T10:29:33Z</time>
      </trkpt>
      <trkpt lat="44.71503" lon="0.79685">
        <ele>215</ele>
        <time>2009-01-20T10:29:37Z</time>
      </trkpt>
      <trkpt lat="44.71515" lon="0.79705">
        <ele>214</ele>
        <time>2009-01-20T10:29:43Z</time>
      </trkpt>
    </trkseg>
  </trk>
</gpx>